Time;durP1;ratioP1;P1;durP2;ratioP2;P2;SDS_P1;SDS_P2;PMS_P1;PMS_P2;Temp;Humidity;BMP_temperature;BMP_pressure;BME280_temperature;BME280_humidity;BME280_pressure;Samples;Min_cycle;Max_cycle;Signal;HPM_P1;HPM_P2
2023/03/22 00:01:09;;;;;;;10.00;6.40;;;;;;;-148.88;99.85;75626.91;4995181;28;20482;-78
2023/03/22 00:03:34;;;;;;;9.80;4.65;;;;;;;-148.88;100.00;75626.91;4996892;28;20533;-81
2023/03/22 00:06:00;;;;;;;10.32;7.03;;;;;;;-148.88;100.00;75630.97;4995528;28;20160;-78
2023/03/22 00:08:27;;;;;;;11.32;6.78;;;;;;;-148.88;100.00;75624.88;4996424;28;20030;-79
2023/03/22 00:10:54;;;;;;;8.73;6.35;;;;;;;-148.88;100.00;75622.84;4998125;28;20037;-79
2023/03/22 00:13:20;;;;;;;7.72;4.28;;;;;;;-148.88;100.00;75612.69;4996637;28;20022;-79
2023/03/22 00:15:47;;;;;;;9.38;6.47;;;;;;;-148.88;100.00;75622.84;4996529;28;20084;-79
2023/03/22 00:18:16;;;;;;;10.20;4.35;;;;;;;-148.88;100.00;75610.66;4996540;28;20419;-79
2023/03/22 00:20:53;;;;;;;10.18;6.85;;;;;;;-148.88;100.00;75618.78;4998299;28;20548;-79
2023/03/22 00:23:21;;;;;;;9.95;6.38;;;;;;;-148.88;100.00;75618.78;4996911;28;20030;-78
2023/03/22 00:25:47;;;;;;;9.05;5.95;;;;;;;-148.88;100.00;75616.75;4996817;28;20090;-79
2023/03/22 00:28:14;;;;;;;10.25;6.38;;;;;;;-148.88;100.00;75606.59;4998485;28;20026;-78
2023/03/22 00:30:40;;;;;;;11.02;6.70;;;;;;;-148.88;100.00;75602.53;4996522;28;20568;-78
2023/03/22 00:33:06;;;;;;;8.57;6.07;;;;;;;-148.88;100.00;75602.53;4996127;28;20046;-79
2023/03/22 00:35:32;;;;;;;7.57;5.60;;;;;;;-148.88;99.72;75598.47;4996123;28;20026;-78
2023/03/22 00:38:04;;;;;;;10.73;4.72;;;;;;;-148.88;99.86;75586.31;4996086;28;20456;-79
2023/03/22 00:40:33;;;;;;;9.05;5.95;;;;;;;-148.88;99.21;75592.38;4997012;28;20500;-78
2023/03/22 00:42:58;;;;;;;9.73;6.13;;;;;;;-148.88;99.38;75584.25;4995761;28;20036;-78
2023/03/22 00:45:24;;;;;;;7.72;3.72;;;;;;;-148.88;100.00;75602.53;4996163;28;20058;-79
2023/03/22 00:47:49;;;;;;;9.82;6.22;;;;;;;-148.88;100.00;75606.59;4998225;28;20030;-79
2023/03/22 00:50:14;;;;;;;9.88;4.35;;;;;;;-148.88;100.00;75608.63;4997559;28;20088;-79
2023/03/22 00:52:40;;;;;;;10.45;6.68;;;;;;;-148.88;100.00;75606.59;4996789;28;20469;-79
2023/03/22 00:55:06;;;;;;;10.35;6.65;;;;;;;-148.88;100.00;75608.63;4996714;28;20037;-79
2023/03/22 00:57:32;;;;;;;9.10;6.10;;;;;;;-148.88;100.00;75602.53;4998362;28;20086;-79
2023/03/22 00:59:57;;;;;;;13.52;6.72;;;;;;;-148.88;100.00;75592.38;4996639;28;20030;-79
2023/03/22 01:02:28;;;;;;;10.27;6.18;;;;;;;-148.88;100.00;75602.53;4996850;28;20023;-79
2023/03/22 01:04:54;;;;;;;8.80;6.30;;;;;;;-148.88;100.00;75590.34;4997987;28;20101;-79
2023/03/22 01:07:20;;;;;;;8.48;4.65;;;;;;;-148.88;100.00;75594.44;4996290;28;20052;-79
2023/03/22 01:09:50;;;;;;;10.75;6.60;;;;;;;-148.88;100.00;75582.22;4996692;28;20030;-79
2023/03/22 01:12:17;;;;;;;8.13;5.93;;;;;;;-148.88;100.00;75576.13;4997736;28;20338;-78
2023/03/22 01:14:42;;;;;;;11.40;4.55;;;;;;;-148.88;100.00;75580.22;4995660;28;20100;-78
2023/03/22 01:17:08;;;;;;;11.52;6.63;;;;;;;-148.88;100.00;75584.25;4994965;28;20090;-79
2023/03/22 01:19:35;;;;;;;11.00;6.88;;;;;;;-148.88;100.00;75586.31;4996951;28;20039;-79
2023/03/22 01:22:02;;;;;;;9.20;6.63;;;;;;;-148.88;100.00;75586.31;4996796;28;20113;-79
2023/03/22 01:24:27;;;;;;;8.48;4.28;;;;;;;-148.88;100.00;75582.22;4995978;28;20025;-78
2023/03/22 01:26:53;;;;;;;9.57;6.50;;;;;;;-148.88;100.00;75590.34;4997889;28;20018;-79
2023/03/22 01:29:18;;;;;;;9.68;4.93;;;;;;;-148.88;100.00;75590.34;4996797;28;20072;-79
2023/03/22 01:31:43;;;;;;;11.45;6.95;;;;;;;-148.88;100.00;75588.34;4998049;28;20022;-79
2023/03/22 01:34:09;;;;;;;11.48;6.82;;;;;;;-148.88;100.00;75582.22;4995636;28;20030;-78
2023/03/22 01:36:36;;;;;;;9.00;6.43;;;;;;;-148.88;100.00;75598.47;4997687;28;20037;-79
2023/03/22 01:39:03;;;;;;;9.43;6.40;;;;;;;-148.88;100.00;75578.19;4996979;28;20080;-79
2023/03/22 01:41:29;;;;;;;9.50;4.88;;;;;;;-148.88;100.00;75566.00;4997164;28;20030;-79
2023/03/22 01:44:15;;;;;;;11.73;6.15;;;;;;;-148.88;100.00;75570.03;4997537;28;20026;-79
2023/03/22 01:46:42;;;;;;;10.00;6.60;;;;;;;-148.88;100.00;75576.13;4996273;28;20026;-79
2023/03/22 01:49:12;;;;;;;8.68;6.65;;;;;;;-148.88;100.00;75584.25;4997071;28;20033;-78
2023/03/22 01:51:39;;;;;;;10.57;7.15;;;;;;;-148.88;100.00;75590.34;4995544;28;20018;-78
2023/03/22 01:54:08;;;;;;;9.13;5.65;;;;;;;-148.88;100.00;75582.22;4995930;28;20109;-78
2023/03/22 01:56:37;;;;;;;10.05;7.15;;;;;;;-148.88;100.00;75594.44;4995671;28;20473;-79
2023/03/22 01:59:04;;;;;;;11.05;7.45;;;;;;;-148.88;100.00;75592.38;4994678;28;20366;-78
2023/03/22 02:01:29;;;;;;;10.10;7.15;;;;;;;-148.88;100.00;75586.31;4996094;28;20385;-79
2023/03/22 02:04:07;;;;;;;12.00;4.78;;;;;;;-148.88;100.00;75580.22;4996533;28;20076;-79
2023/03/22 02:06:36;;;;;;;9.95;7.63;;;;;;;-148.88;100.00;75588.34;4995640;28;20347;-79
2023/03/22 02:09:08;;;;;;;9.77;4.88;;;;;;;-148.88;100.00;75578.19;4996768;28;20049;-79
2023/03/22 02:11:40;;;;;;;9.77;4.82;;;;;;;-148.88;100.00;75572.09;4998159;28;20033;-80
2023/03/22 02:14:37;;;;;;;11.90;5.07;;;;;;;-148.88;100.00;75549.75;4999542;28;20022;-79
2023/03/22 02:17:23;;;;;;;11.10;7.88;;;;;;;-148.88;100.00;75566.00;5001123;28;20109;-79
2023/03/22 02:20:16;;;;;;;9.43;7.03;;;;;;;-148.88;100.00;75566.00;5000047;28;20023;-79
2023/03/22 02:22:58;;;;;;;9.93;7.28;;;;;;;-148.88;100.00;75568.03;5001541;28;20018;-79
2023/03/22 02:25:26;;;;;;;14.75;5.32;;;;;;;-148.88;100.00;75568.03;4998441;28;20109;-79
2023/03/22 02:28:16;;;;;;;10.65;7.22;;;;;;;-148.88;100.00;75566.00;4998087;28;20034;-78
2023/03/22 02:30:54;;;;;;;10.32;6.95;;;;;;;-148.88;100.00;75574.13;4998105;28;20109;-79
2023/03/22 02:33:49;;;;;;;10.88;7.65;;;;;;;-148.88;100.00;75566.00;4996544;28;20065;-78
2023/03/22 02:36:30;;;;;;;9.73;7.13;;;;;;;-148.88;100.00;75574.13;4946461;28;20054;-78
2023/03/22 02:39:03;;;;;;;7.75;4.80;;;;;;;-148.88;100.00;75572.09;4998659;28;20466;-79
2023/03/22 02:41:43;;;;;;;12.35;7.05;;;;;;;-148.88;100.00;75574.13;4999114;28;20118;-79
2023/03/22 02:44:25;;;;;;;12.05;7.22;;;;;;;-148.88;100.00;75572.09;4999189;28;20030;-79
2023/03/22 02:47:01;;;;;;;11.57;6.80;;;;;;;-148.88;100.00;75574.13;5000600;28;20424;-79
2023/03/22 02:49:39;;;;;;;11.75;7.47;;;;;;;-148.88;100.00;75559.91;5002275;28;20481;-79
2023/03/22 02:52:17;;;;;;;11.20;5.22;;;;;;;-148.88;100.00;75561.94;5000875;28;20521;-79
2023/03/22 02:55:10;;;;;;;9.32;6.70;;;;;;;-148.88;100.00;75555.84;5000815;28;20026;-79
2023/03/22 02:57:50;;;;;;;9.93;4.45;;;;;;;-148.88;100.00;75557.88;5001681;28;20034;-79
2023/03/22 03:00:17;;;;;;;8.73;4.57;;;;;;;-148.88;100.00;75555.84;5002099;28;20022;-79
2023/03/22 03:02:47;;;;;;;12.77;7.88;;;;;;;-148.88;100.00;75557.88;4999239;28;20114;-78
2023/03/22 03:05:15;;;;;;;10.65;7.13;;;;;;;-148.88;100.00;75557.88;4997210;28;20477;-78
2023/03/22 03:07:47;;;;;;;12.30;7.93;;;;;;;-148.88;100.00;75553.81;4997489;28;20071;-78
2023/03/22 03:10:15;;;;;;;11.23;4.95;;;;;;;-148.88;100.00;75557.88;4997443;28;20109;-78
2023/03/22 03:12:40;;;;;;;13.60;8.65;;;;;;;-148.88;100.00;75553.81;4997319;28;20034;-78
2023/03/22 03:15:13;;;;;;;9.82;5.10;;;;;;;-148.88;100.00;75551.78;4997794;28;20367;-77
2023/03/22 03:17:55;;;;;;;13.00;8.00;;;;;;;-148.88;100.00;75549.75;4999419;28;20019;-78
2023/03/22 03:20:35;;;;;;;13.70;8.10;;;;;;;-148.88;100.00;75541.63;4999898;28;20034;-78
2023/03/22 03:23:20;;;;;;;12.68;7.75;;;;;;;-148.88;100.00;75529.44;4999120;28;20058;-78
2023/03/22 03:25:57;;;;;;;8.52;4.97;;;;;;;-148.88;100.00;75541.63;5000320;28;20026;-78
2023/03/22 03:28:37;;;;;;;12.80;7.78;;;;;;;-148.88;100.00;75541.63;4998748;28;20025;-78
2023/03/22 03:31:18;;;;;;;11.02;7.90;;;;;;;-148.88;100.00;75551.78;4998567;28;20030;-78
2023/03/22 03:33:53;;;;;;;11.35;7.93;;;;;;;-148.88;100.00;75557.88;4999977;28;20026;-78
2023/03/22 03:36:21;;;;;;;9.98;8.02;;;;;;;-148.88;100.00;75570.03;4998876;28;20121;-78
2023/03/22 03:38:51;;;;;;;10.60;7.68;;;;;;;-148.88;100.00;75563.97;4980334;28;20477;-77
2023/03/22 03:41:20;;;;;;;12.57;8.23;;;;;;;-148.88;100.00;75576.13;4997000;28;20130;-77
2023/03/22 03:43:50;;;;;;;10.38;5.10;;;;;;;-148.88;100.00;75580.22;4996828;28;20022;-77
2023/03/22 03:46:16;;;;;;;16.30;7.75;;;;;;;-148.88;100.00;75578.19;4997288;28;20114;-78
2023/03/22 03:48:46;;;;;;;11.50;8.00;;;;;;;-148.88;100.00;75584.25;4995923;28;20042;-78
2023/03/22 03:51:11;;;;;;;13.60;8.40;;;;;;;-148.88;100.00;75586.31;4998485;28;20389;-78
2023/03/22 03:53:37;;;;;;;13.57;8.45;;;;;;;-148.88;100.00;75580.22;4999747;28;20553;-78
2023/03/22 03:56:04;;;;;;;12.43;8.30;;;;;;;-148.88;100.00;75580.22;4998309;28;20115;-78
2023/03/22 03:58:29;;;;;;;9.85;5.55;;;;;;;-148.88;100.00;75570.03;4998156;28;20022;-78
2023/03/22 04:00:55;;;;;;;13.88;5.88;;;;;;;-148.88;100.00;75578.19;4997763;28;20551;-78
2023/03/22 04:03:21;;;;;;;14.55;5.80;;;;;;;-148.88;100.00;75574.13;4999413;28;20030;-78
2023/03/22 04:05:47;;;;;;;15.48;9.23;;;;;;;-148.88;100.00;75582.22;4999645;28;20076;-80
2023/03/22 04:08:12;;;;;;;12.35;9.32;;;;;;;-148.88;100.00;75574.13;5001212;28;20022;-80
2023/03/22 04:10:38;;;;;;;10.70;6.22;;;;;;;-148.88;100.00;75570.03;5002063;28;20026;-79
2023/03/22 04:13:03;;;;;;;14.02;5.72;;;;;;;-148.88;100.00;75574.13;4999995;28;20062;-79
2023/03/22 04:15:30;;;;;;;11.88;8.93;;;;;;;-148.88;100.00;75559.91;4997321;28;20097;-78
2023/03/22 04:17:55;;;;;;;12.63;8.77;;;;;;;-148.88;100.00;75553.81;4996704;28;20018;-78
2023/03/22 04:20:21;;;;;;;11.90;8.82;;;;;;;-148.88;100.00;75566.00;4996352;28;20466;-78
2023/03/22 04:22:47;;;;;;;10.70;5.78;;;;;;;-148.88;100.00;75545.69;4998230;28;20030;-79
2023/03/22 04:25:16;;;;;;;12.52;9.10;;;;;;;-148.88;100.00;75553.81;4997492;28;20543;-79
2023/03/22 04:27:43;;;;;;;9.40;5.60;;;;;;;-148.88;100.00;75549.75;4999834;28;20105;-79
2023/03/22 04:30:17;;;;;;;12.32;5.70;;;;;;;-148.88;100.00;75549.75;5000062;28;20034;-79
2023/03/22 04:32:48;;;;;;;12.95;8.85;;;;;;;-148.88;100.00;75561.94;4984843;28;20102;-79
2023/03/22 04:35:14;;;;;;;11.43;5.70;;;;;;;-148.88;100.00;75566.00;5000198;28;20026;-79
2023/03/22 04:37:41;;;;;;;13.45;9.23;;;;;;;-148.88;100.00;75557.88;5003462;28;20022;-79
2023/03/22 04:40:08;;;;;;;11.60;8.95;;;;;;;-148.88;100.00;75563.97;5001160;28;20034;-80
2023/03/22 04:42:38;;;;;;;14.88;5.57;;;;;;;-148.88;100.00;75566.00;5031035;23;20052;-90
2023/03/22 04:45:33;;;;;;;10.90;8.93;;;;;;;-148.88;100.00;75559.91;5018266;28;20025;-90
2023/03/22 04:48:21;;;;;;;12.55;5.85;;;;;;;-148.88;100.00;75561.94;5017549;28;20040;-90
2023/03/22 04:50:54;;;;;;;14.32;6.10;;;;;;;-148.88;100.00;75553.81;5030803;28;20060;-89
2023/03/22 04:53:42;;;;;;;;;;;;;;;;;;;;;
2023/03/22 04:56:20;;;;;;;11.63;6.25;;;;;;;-148.88;100.00;75566.00;5035560;28;20025;-89
2023/03/22 04:58:57;;;;;;;10.52;5.93;;;;;;;-148.88;100.00;75561.94;5017039;28;20088;-89
2023/03/22 05:01:29;;;;;;;12.55;9.13;;;;;;;-148.88;100.00;75545.69;5018381;28;20034;-89
2023/03/22 05:04:13;;;;;;;13.50;9.43;;;;;;;-148.88;100.00;75549.75;5035356;28;20033;-89
2023/03/22 05:06:47;;;;;;;12.43;5.55;;;;;;;-148.88;100.00;75541.63;5035490;28;20100;-88
2023/03/22 05:09:39;;;;;;;12.02;5.55;;;;;;;-148.88;100.00;75543.66;5017588;28;20369;-89
2023/03/22 05:12:10;;;;;;;11.25;6.38;;;;;;;-148.88;100.00;75541.63;5003083;28;20025;-89
2023/03/22 05:14:52;;;;;;;14.27;9.10;;;;;;;-148.88;100.00;75541.63;5017259;28;20044;-89
2023/03/22 05:20:42;;;;;;;12.55;6.35;;;;;;;-148.88;100.00;75523.34;5034832;28;20064;-88
2023/03/22 05:23:17;;;;;;;11.60;8.60;;;;;;;-148.88;100.00;75517.25;4988782;28;20040;-88
2023/03/22 05:25:45;;;;;;;12.15;6.22;;;;;;;-148.88;100.00;75525.38;5017895;28;20499;-90
2023/03/22 05:28:13;;;;;;;13.40;9.65;;;;;;;-148.88;100.00;75521.31;5018209;28;20021;-89
2023/03/22 05:30:39;;;;;;;11.65;8.85;;;;;;;-148.88;100.00;75519.28;5018469;28;20036;-90
2023/03/22 05:33:05;;;;;;;13.20;6.10;;;;;;;-148.88;100.00;75513.19;5019053;28;20028;-90
2023/03/22 05:35:33;;;;;;;12.32;5.78;;;;;;;-148.88;100.00;75525.38;5020086;28;20022;-90
2023/03/22 05:37:58;;;;;;;15.00;6.80;;;;;;;-148.88;100.00;75529.44;5021560;28;20025;-90
2023/03/22 05:40:25;;;;;;;15.68;10.27;;;;;;;-148.88;100.00;75531.47;5021501;28;20392;-91
2023/03/22 05:42:51;;;;;;;15.90;8.25;;;;;;;-148.88;100.00;75537.56;5036819;28;20030;-90
2023/03/22 05:45:17;;;;;;;14.63;6.93;;;;;;;-148.88;100.00;75541.63;5037011;28;20029;-90
2023/03/22 05:47:42;;;;;;;13.13;6.43;;;;;;;-148.88;100.00;75537.56;5024503;28;20029;-91
2023/03/22 05:50:09;;;;;;;13.38;6.20;;;;;;;-148.88;100.00;75529.44;5039949;28;20026;-91
2023/03/22 05:52:35;;;;;;;14.77;10.07;;;;;;;-148.88;100.00;75525.38;5021558;28;20028;-90
2023/03/22 05:55:00;;;;;;;11.85;6.10;;;;;;;-148.88;100.00;75529.44;5038870;28;20029;-91
2023/03/22 05:57:28;;;;;;;12.10;6.55;;;;;;;-148.88;100.00;75533.50;5036939;28;20093;-91
2023/03/22 05:59:54;;;;;;;15.57;9.95;;;;;;;-148.88;100.00;75541.63;5019276;28;20389;-90
2023/03/22 06:02:20;;;;;;;10.95;5.90;;;;;;;-148.88;100.00;75533.50;5020696;28;20518;-91
2023/03/22 06:04:54;;;;;;;19.02;10.25;;;;;;;-148.88;100.00;75537.56;5037629;28;20032;-90
2023/03/22 06:07:20;;;;;;;13.75;6.28;;;;;;;-148.88;100.00;75525.38;5036878;28;20076;-92
2023/03/22 06:09:45;;;;;;;13.40;6.53;;;;;;;-148.88;100.00;75511.16;5037291;28;20037;-91
2023/03/22 06:12:11;;;;;;;10.05;5.90;;;;;;;-148.88;100.00;75515.22;5039087;28;20021;-90
2023/03/22 06:14:43;;;;;;;11.95;8.48;;;;;;;-148.88;100.00;75509.13;5021212;28;20068;-91
2023/03/22 06:17:08;;;;;;;13.55;9.55;;;;;;;-148.88;100.00;75505.06;5038111;28;20098;-91
2023/03/22 06:19:33;;;;;;;13.75;9.38;;;;;;;-148.88;100.00;75498.97;5037303;28;20479;-90
2023/03/22 06:21:59;;;;;;;12.45;6.28;;;;;;;-148.88;100.00;75496.94;5022647;28;20029;-90
2023/03/22 06:24:27;;;;;;;10.13;6.25;;;;;;;-148.88;100.00;75488.81;5026509;28;20029;-89
2023/03/22 06:26:52;;;;;;;16.30;7.45;;;;;;;-148.88;100.00;75476.63;5051563;28;20040;-89
2023/03/22 06:29:18;;;;;;;15.50;10.43;;;;;;;-148.88;100.00;75460.38;5037096;28;20028;-89
2023/03/22 06:31:43;;;;;;;16.00;11.70;;;;;;;-148.88;100.00;75456.31;5019679;28;20033;-88
2023/03/22 06:34:08;;;;;;;11.82;8.05;;;;;;;-148.88;100.00;75460.38;5035740;28;20031;-87
2023/03/22 06:36:33;;;;;;;12.15;5.07;;;;;;;-148.88;100.00;75456.31;5038116;28;20049;-87
2023/03/22 06:38:59;;;;;;;11.38;5.80;;;;;;;-148.88;100.00;75454.28;5037305;28;20436;-87
2023/03/22 06:41:25;;;;;;;13.90;5.40;;;;;;;-148.88;100.00;75446.16;5018925;28;20025;-87
2023/03/22 06:43:51;;;;;;;10.68;4.75;;;;;;;-148.88;100.00;75442.09;5017876;28;20442;-87
2023/03/22 06:46:16;;;;;;;11.60;4.68;;;;;;;-148.88;100.00;75431.94;5017952;28;20022;-88
2023/03/22 06:48:41;;;;;;;10.15;6.90;;;;;;;-148.88;100.00;75436.00;5035938;28;20392;-89
2023/03/22 06:51:07;;;;;;;11.15;7.03;;;;;;;-148.88;100.00;75433.97;5035546;28;20108;-88
2023/03/22 06:53:32;;;;;;;12.00;7.03;;;;;;;-148.88;100.00;75415.69;5018430;28;20391;-85
2023/03/22 06:55:58;;;;;;;11.68;6.53;;;;;;;-148.88;100.00;75401.47;5034511;28;20033;-87
2023/03/22 06:58:23;;;;;;;9.52;6.03;;;;;;;-148.88;99.32;75395.38;5018859;28;20022;-87
2023/03/22 07:00:51;;;;;;;9.75;6.30;;;;;;;-148.88;99.76;75391.31;5037767;28;20021;-87
2023/03/22 07:03:17;;;;;;;13.18;6.40;;;;;;;-148.88;98.35;75383.19;5038608;28;20025;-87
2023/03/22 07:05:42;;;;;;;10.10;6.18;;;;;;;-148.88;99.36;75387.25;5038593;28;20468;-88
2023/03/22 07:08:08;;;;;;;10.73;5.80;;;;;;;-148.88;98.33;75383.19;5038875;28;20040;-88
2023/03/22 07:10:33;;;;;;;9.93;5.63;;;;;;;-148.88;98.35;75373.03;5036891;28;20052;-88
2023/03/22 07:12:59;;;;;;;8.40;5.68;;;;;;;-148.88;98.19;75383.19;5020061;28;20023;-86
2023/03/22 07:15:24;;;;;;;11.18;4.22;;;;;;;-148.88;98.34;75391.31;5036676;28;20021;-86
2023/03/22 07:17:50;;;;;;;10.00;5.45;;;;;;;-148.88;99.18;75385.22;5036940;28;20100;-87
2023/03/22 07:20:17;;;;;;;9.18;5.65;;;;;;;-148.88;98.19;75379.13;5036627;28;20072;-85
2023/03/22 07:22:43;;;;;;;11.25;6.18;;;;;;;-148.88;98.52;75381.16;5019750;28;20415;-86
2023/03/22 07:25:09;;;;;;;8.25;5.10;;;;;;;-148.88;98.17;75383.19;5019021;28;20472;-86
2023/03/22 07:27:35;;;;;;;10.05;5.97;;;;;;;-148.88;97.96;75373.03;5022268;28;20052;-86
2023/03/22 07:30:04;;;;;;;11.55;5.35;;;;;;;-148.88;97.25;75362.88;5026330;28;20071;-85
2023/03/22 07:32:30;;;;;;;9.05;5.35;;;;;;;-148.88;97.54;75366.94;5019953;28;20018;-85
2023/03/22 07:34:55;;;;;;;8.98;4.90;;;;;;;-148.88;97.30;75358.81;5018007;28;20036;-87
2023/03/22 07:37:21;;;;;;;13.23;3.22;;;;;;;-148.88;96.88;75348.66;5035803;28;20383;-86
2023/03/22 07:39:46;;;;;;;9.13;4.50;;;;;;;-148.88;97.23;75346.63;5018572;28;20156;-90
2023/03/22 07:42:12;;;;;;;9.88;4.50;;;;;;;-148.88;96.10;75330.38;5035557;28;20262;-88
2023/03/22 07:44:38;;;;;;;6.65;4.57;;;;;;;-148.88;96.48;75326.31;5035608;28;20052;-86
2023/03/22 07:47:03;;;;;;;12.85;5.25;;;;;;;-148.88;96.82;75326.31;5035584;28;20388;-86
2023/03/22 07:49:30;;;;;;;8.13;4.78;;;;;;;-148.88;96.13;75328.34;5037659;28;20025;-85
2023/03/22 07:51:55;;;;;;;10.57;5.05;;;;;;;-148.88;97.24;75334.44;5035983;28;20032;-86
2023/03/22 07:54:21;;;;;;;9.15;5.07;;;;;;;-148.88;97.84;75330.38;5035228;28;20025;-86
2023/03/22 07:56:46;;;;;;;10.25;5.22;;;;;;;-148.88;97.56;75332.41;5034847;28;20037;-87
2023/03/22 07:59:13;;;;;;;9.57;5.35;;;;;;;-148.88;97.60;75328.34;5018361;28;20057;-88
2023/03/22 08:01:39;;;;;;;8.00;3.65;;;;;;;-148.88;98.00;75324.28;5017797;28;20029;-88
2023/03/22 08:04:04;;;;;;;11.18;5.63;;;;;;;-148.88;98.12;75334.44;5035546;28;20468;-86
2023/03/22 08:06:31;;;;;;;10.48;5.80;;;;;;;-148.88;98.02;75336.47;5037394;28;20022;-86
2023/03/22 08:08:57;;;;;;;9.70;5.80;;;;;;;-148.88;98.73;75332.41;5036644;28;20034;-86
2023/03/22 08:11:23;;;;;;;11.98;6.28;;;;;;;-148.88;98.46;75324.28;5036284;28;20079;-89
2023/03/22 08:13:48;;;;;;;8.48;5.68;;;;;;;-148.88;97.68;75310.06;5035988;28;20056;-88
2023/03/22 08:16:13;;;;;;;11.63;5.70;;;;;;;-148.88;97.42;75299.91;5037616;28;20379;-87
2023/03/22 08:18:44;;;;;;;12.30;6.00;;;;;;;-148.88;96.24;75285.69;5034811;28;20021;-86
2023/03/22 08:21:09;;;;;;;10.15;5.72;;;;;;;-148.88;95.83;75285.69;5035580;28;20026;-86
2023/03/22 08:23:35;;;;;;;11.93;5.53;;;;;;;-148.88;95.47;75273.53;5017660;28;20365;-84
2023/03/22 08:26:00;;;;;;;8.32;5.47;;;;;;;-148.88;95.03;75273.53;5017087;28;20021;-86
2023/03/22 08:28:26;;;;;;;9.68;5.53;;;;;;;-148.88;96.22;75255.25;5034722;28;20037;-86
2023/03/22 08:30:51;;;;;;;10.23;4.93;;;;;;;-148.88;94.54;75261.34;5034590;28;20060;-85
2023/03/22 08:33:20;;;;;;;9.73;5.25;;;;;;;-148.88;94.45;75234.94;5000871;28;20044;-87
2023/03/22 08:35:45;;;;;;;9.23;4.55;;;;;;;-148.88;94.31;75236.97;5017791;28;20029;-87
2023/03/22 08:38:11;;;;;;;12.38;5.00;;;;;;;-148.88;94.33;75220.72;5038301;28;20475;-87
2023/03/22 08:40:36;;;;;;;7.38;5.35;;;;;;;-148.88;94.58;75224.78;5035596;28;20427;-87
2023/03/22 08:43:01;;;;;;;9.55;5.07;;;;;;;-148.88;94.41;75220.72;5036264;28;20045;-86
2023/03/22 08:45:27;;;;;;;9.77;4.97;;;;;;;-148.88;93.34;75194.31;5036930;28;20443;-87
2023/03/22 08:47:53;;;;;;;8.95;5.03;;;;;;;-148.88;92.38;75180.09;5017855;28;20068;-88
2023/03/22 08:50:18;;;;;;;11.80;5.18;;;;;;;-148.88;91.31;75188.22;5017212;28;20021;-87
2023/03/22 08:52:43;;;;;;;8.45;4.88;;;;;;;-148.88;92.80;75196.34;5034819;28;20025;-87
2023/03/22 08:55:17;;;;;;;8.07;4.30;;;;;;;-148.88;93.71;75186.19;5034471;28;20054;-87
2023/03/22 08:57:49;;;;;;;8.02;4.05;;;;;;;-148.88;92.72;75176.03;5034321;28;20017;-86
2023/03/22 09:00:16;;;;;;;6.80;4.47;;;;;;;-148.88;92.46;75182.13;5034295;28;20377;-88
2023/03/22 09:02:42;;;;;;;10.32;4.75;;;;;;;-148.88;91.85;75174.00;5016546;28;20033;-87
2023/03/22 09:05:13;;;;;;;6.97;4.55;;;;;;;-148.88;91.83;75139.47;5033951;28;20087;-88
2023/03/22 09:07:39;;;;;;;9.00;4.40;;;;;;;-148.88;90.15;75111.03;5015803;28;20140;-87
2023/03/22 09:10:05;;;;;;;10.45;4.72;;;;;;;-148.88;89.53;75117.13;5034034;28;20033;-90
2023/03/22 09:12:30;;;;;;;8.50;4.10;;;;;;;-148.88;88.90;75111.03;5016183;28;20022;-87
2023/03/22 09:14:56;;;;;;;8.30;4.03;;;;;;;-148.88;89.53;75096.81;5034181;28;20029;-88
2023/03/22 09:17:21;;;;;;;8.32;4.40;;;;;;;-148.88;88.77;75094.81;5034564;28;20100;-91
2023/03/22 09:19:47;;;;;;;9.07;4.13;;;;;;;-148.88;88.49;75074.50;5034111;28;20391;-87
2023/03/22 09:22:13;;;;;;;9.60;4.50;;;;;;;-148.88;85.62;75090.72;5033787;28;20049;-89
2023/03/22 09:24:39;;;;;;;8.63;4.80;;;;;;;-148.88;88.70;75066.38;5017998;28;20032;-90
2023/03/22 09:27:04;;;;;;;8.38;3.88;;;;;;;-148.88;87.15;75066.38;5019027;28;20022;-88
2023/03/22 09:29:31;;;;;;;8.52;3.80;;;;;;;-148.88;87.79;75078.56;5033840;28;20045;-89
2023/03/22 09:32:03;;;;;;;10.10;4.68;;;;;;;-148.88;88.31;75082.63;5016018;28;20483;-88
2023/03/22 09:34:28;;;;;;;10.38;4.53;;;;;;;-148.88;88.11;75070.44;5017110;28;20041;-88
2023/03/22 09:37:03;;;;;;;8.50;4.45;;;;;;;-148.88;88.65;75033.88;5016046;28;20025;-89
2023/03/22 09:39:29;;;;;;;8.48;4.13;;;;;;;-148.88;86.57;75035.91;5034343;28;20033;-89
2023/03/22 09:41:59;;;;;;;7.18;4.05;;;;;;;-148.88;85.64;75060.28;5033857;28;20116;-89
2023/03/22 09:44:35;;;;;;;8.52;3.95;;;;;;;-148.88;85.32;75062.31;5016252;28;20167;-89
2023/03/22 09:47:04;;;;;;;6.15;3.78;;;;;;;-148.88;86.39;75074.50;5017362;28;20034;-88
2023/03/22 09:49:35;;;;;;;6.75;3.75;;;;;;;-148.88;85.98;75066.38;5033789;28;20025;-91
2023/03/22 09:52:01;;;;;;;5.50;3.45;;;;;;;-148.88;86.17;75058.25;5016586;28;20120;-87
2023/03/22 09:54:37;;;;;;;6.55;3.20;;;;;;;-148.88;85.17;75052.16;5016534;28;20130;-91
2023/03/22 09:57:11;;;;;;;8.57;3.63;;;;;;;-148.88;83.95;75080.59;5021306;28;20017;-86
2023/03/22 10:00:01;;;;;;;4.90;2.92;;;;;;;-148.88;84.08;75060.28;5016425;28;20029;-87
2023/03/22 10:03:00;;;;;;;6.05;3.22;;;;;;;-148.88;83.72;75042.00;5034812;28;20091;-88
2023/03/22 10:06:09;;;;;;;7.43;3.80;;;;;;;-148.88;83.38;75037.94;5026163;28;20484;-89
2023/03/22 10:08:46;;;;;;;7.55;3.28;;;;;;;-148.88;82.24;74993.25;4998407;28;20521;-88
2023/03/22 10:11:30;;;;;;;6.07;3.17;;;;;;;-148.88;83.62;74956.69;5016485;28;20048;-87
2023/03/22 10:14:06;;;;;;;;;;;;;;;-148.88;82.53;74956.69;5034351;28;20032;-88
2023/03/22 10:16:34;;;;;;;7.05;3.50;;;;;;;-148.88;79.87;74954.66;5035332;28;19947;-87
2023/03/22 10:19:42;;;;;;;4.50;3.55;;;;;;;-148.88;79.18;74989.19;5034418;28;20048;-86
2023/03/22 10:22:14;;;;;;;8.95;4.32;;;;;;;-148.88;82.37;74993.25;5012566;28;20038;-88
2023/03/22 10:24:43;;;;;;;9.40;5.00;;;;;;;-148.88;82.67;74993.25;5016037;28;20025;-86
2023/03/22 10:27:17;;;;;;;9.23;4.53;;;;;;;-148.88;82.58;74989.19;5033722;28;20040;-86
2023/03/22 10:29:50;;;;;;;8.02;4.18;;;;;;;-148.88;77.89;74977.00;5033856;28;20045;-88
2023/03/22 10:32:19;;;;;;;10.27;4.20;;;;;;;-148.88;77.90;74962.78;5034082;28;20026;-88
2023/03/22 10:34:46;;;;;;;7.88;4.15;;;;;;;-148.88;77.49;74954.66;5037262;28;20109;-87
2023/03/22 10:37:21;;;;;;;8.25;3.90;;;;;;;-148.88;76.21;74946.53;5037655;28;20048;-86
2023/03/22 10:39:50;;;;;;;8.20;4.10;;;;;;;-148.88;77.30;74940.47;5037639;28;20021;-87
2023/03/22 10:42:20;;;;;;;5.72;3.35;;;;;;;-148.88;74.86;74920.16;5018628;28;20484;-87
2023/03/22 10:44:47;;;;;;;4.80;2.60;;;;;;;-148.88;71.15;74907.97;5019218;28;20033;-88
2023/03/22 10:47:17;;;;;;;9.02;3.00;;;;;;;-148.88;72.05;74871.41;5018983;28;20029;-87
2023/03/22 10:49:53;;;;;;;6.15;3.00;;;;;;;-148.88;71.67;74891.72;5037709;28;20048;-89
2023/03/22 10:53:00;;;;;;;6.53;2.70;;;;;;;-148.88;71.07;74940.47;5020423;28;20072;-88
2023/03/22 10:55:25;;;;;;;11.40;3.70;;;;;;;-148.88;72.17;74970.91;5006241;28;20079;-87
2023/03/22 10:58:15;;;;;;;6.03;2.65;;;;;;;-148.88;72.20;75001.38;5037040;28;20068;-88
2023/03/22 11:00:53;;;;;;;5.70;2.42;;;;;;;-148.88;73.64;74981.06;5020611;28;20022;-86
2023/03/22 11:03:35;;;;;;;7.07;2.80;;;;;;;-148.88;72.76;74985.13;5016150;28;20021;-88
2023/03/22 11:06:21;;;;;;;4.82;2.70;;;;;;;-148.88;72.85;75009.50;5037044;28;20017;-86
2023/03/22 11:08:52;;;;;;;8.00;3.00;;;;;;;-148.88;72.75;75013.56;5036773;28;20060;-87
2023/03/22 11:11:39;;;;;;;6.22;2.50;;;;;;;-148.88;73.48;75005.44;5037292;28;20044;-87
2023/03/22 11:14:18;;;;;;;7.10;2.22;;;;;;;-148.88;72.97;75007.47;5036944;28;20025;-87
2023/03/22 11:17:01;;;;;;;4.57;2.60;;;;;;;-148.88;73.83;75019.66;5036623;28;20025;-88
2023/03/22 11:19:31;;;;;;;5.85;2.40;;;;;;;-148.88;73.17;74977.00;5036359;28;20040;-88
2023/03/22 11:21:58;;;;;;;6.72;2.67;;;;;;;-148.88;72.80;74972.94;5018771;28;20025;-85
2023/03/22 11:24:26;;;;;;;6.93;2.40;;;;;;;-148.88;72.47;74966.84;5036173;28;20032;-87
2023/03/22 11:27:28;;;;;;;6.10;2.38;;;;;;;-148.88;71.45;74952.63;5018410;28;20060;-87